sensor_id;sensor_type;location;lat;lon;timestamp;P1;durP1;ratioP1;P2;durP2;ratioP2
6499;SDS011;3283;52.330;9.772;2023-04-24T04:02:49;544.23;;;146.93;;
6499;SDS011;3283;52.330;9.772;2023-04-24T04:05:15;549.57;;;157.70;;
6499;SDS011;3283;52.330;9.772;2023-04-24T04:07:40;555.47;;;165.37;;
6499;SDS011;3283;52.330;9.772;2023-04-24T04:10:06;551.33;;;154.13;;
6499;SDS011;3283;52.330;9.772;2023-04-24T04:12:32;550.90;;;155.50;;
6499;SDS011;3283;52.330;9.772;2023-04-24T04:14:58;552.80;;;161.97;;
6499;SDS011;3283;52.330;9.772;2023-04-24T04:17:23;556.97;;;164.23;;
6499;SDS011;3283;52.330;9.772;2023-04-24T04:19:48;552.87;;;158.60;;
6499;SDS011;3283;52.330;9.772;2023-04-24T04:22:14;546.23;;;148.93;;
6499;SDS011;3283;52.330;9.772;2023-04-24T04:24:39;554.57;;;163.70;;
6499;SDS011;3283;52.330;9.772;2023-04-24T04:27:05;553.03;;;154.60;;
6499;SDS011;3283;52.330;9.772;2023-04-24T04:29:31;567.43;;;180.67;;
6499;SDS011;3283;52.330;9.772;2023-04-24T04:31:57;553.70;;;161.50;;
6499;SDS011;3283;52.330;9.772;2023-04-24T04:34:23;565.73;;;189.97;;
6499;SDS011;3283;52.330;9.772;2023-04-24T04:36:49;567.87;;;184.20;;
6499;SDS011;3283;52.330;9.772;2023-04-24T04:39:15;558.73;;;179.97;;
6499;SDS011;3283;52.330;9.772;2023-04-24T04:41:41;567.97;;;188.77;;
6499;SDS011;3283;52.330;9.772;2023-04-24T04:44:07;558.47;;;164.27;;
6499;SDS011;3283;52.330;9.772;2023-04-24T04:46:33;559.07;;;172.17;;
6499;SDS011;3283;52.330;9.772;2023-04-24T04:49:00;559.93;;;175.40;;
6499;SDS011;3283;52.330;9.772;2023-04-24T04:51:26;561.10;;;163.27;;
6499;SDS011;3283;52.330;9.772;2023-04-24T04:53:52;567.57;;;186.60;;
6499;SDS011;3283;52.330;9.772;2023-04-24T04:56:17;558.57;;;158.53;;
6499;SDS011;3283;52.330;9.772;2023-04-24T04:58:43;566.37;;;185.67;;
6499;SDS011;3283;52.330;9.772;2023-04-24T05:01:08;558.00;;;166.17;;
6499;SDS011;3283;52.330;9.772;2023-04-24T05:03:34;559.43;;;161.27;;
6499;SDS011;3283;52.330;9.772;2023-04-24T05:06:00;570.00;;;177.90;;
6499;SDS011;3283;52.330;9.772;2023-04-24T05:08:27;563.73;;;176.00;;
6499;SDS011;3283;52.330;9.772;2023-04-24T05:10:52;560.93;;;168.37;;
6499;SDS011;3283;52.330;9.772;2023-04-24T05:13:18;559.57;;;171.70;;
6499;SDS011;3283;52.330;9.772;2023-04-24T05:15:43;577.40;;;191.67;;
6499;SDS011;3283;52.330;9.772;2023-04-24T05:18:09;563.20;;;168.07;;
6499;SDS011;3283;52.330;9.772;2023-04-24T05:20:34;570.17;;;189.40;;
6499;SDS011;3283;52.330;9.772;2023-04-24T05:23:00;564.63;;;180.13;;
6499;SDS011;3283;52.330;9.772;2023-04-24T05:25:25;564.43;;;169.47;;
6499;SDS011;3283;52.330;9.772;2023-04-24T05:27:51;561.77;;;164.03;;
6499;SDS011;3283;52.330;9.772;2023-04-24T05:30:16;566.53;;;174.57;;
6499;SDS011;3283;52.330;9.772;2023-04-24T05:32:41;555.17;;;154.13;;
6499;SDS011;3283;52.330;9.772;2023-04-24T05:35:07;559.57;;;160.47;;
6499;SDS011;3283;52.330;9.772;2023-04-24T05:37:32;573.77;;;186.73;;
6499;SDS011;3283;52.330;9.772;2023-04-24T05:39:58;565.97;;;172.33;;
6499;SDS011;3283;52.330;9.772;2023-04-24T05:42:23;567.47;;;183.07;;
6499;SDS011;3283;52.330;9.772;2023-04-24T05:44:49;574.35;;;212.80;;
6499;SDS011;3283;52.330;9.772;2023-04-24T05:47:15;585.03;;;210.43;;
6499;SDS011;3283;52.330;9.772;2023-04-24T05:49:41;576.43;;;202.80;;
6499;SDS011;3283;52.330;9.772;2023-04-24T05:52:06;569.80;;;190.17;;
6499;SDS011;3283;52.330;9.772;2023-04-24T05:54:33;572.80;;;181.87;;
6499;SDS011;3283;52.330;9.772;2023-04-24T05:56:59;569.67;;;180.00;;
6499;SDS011;3283;52.330;9.772;2023-04-24T05:59:29;575.77;;;196.73;;
6499;SDS011;3283;52.330;9.772;2023-04-24T06:01:54;569.23;;;188.57;;
6499;SDS011;3283;52.330;9.772;2023-04-24T06:04:20;565.37;;;174.23;;
6499;SDS011;3283;52.330;9.772;2023-04-24T06:06:45;578.47;;;205.30;;
6499;SDS011;3283;52.330;9.772;2023-04-24T06:09:10;576.73;;;208.70;;
6499;SDS011;3283;52.330;9.772;2023-04-24T06:11:37;574.37;;;199.37;;
6499;SDS011;3283;52.330;9.772;2023-04-24T06:14:02;582.07;;;200.90;;
6499;SDS011;3283;52.330;9.772;2023-04-24T06:16:27;574.57;;;191.57;;
6499;SDS011;3283;52.330;9.772;2023-04-24T06:18:54;579.57;;;212.00;;
6499;SDS011;3283;52.330;9.772;2023-04-24T06:21:20;578.63;;;199.80;;
6499;SDS011;3283;52.330;9.772;2023-04-24T06:23:45;578.23;;;196.97;;
6499;SDS011;3283;52.330;9.772;2023-04-24T06:26:12;568.53;;;180.57;;
6499;SDS011;3283;52.330;9.772;2023-04-24T06:28:37;585.90;;;214.83;;
6499;SDS011;3283;52.330;9.772;2023-04-24T06:31:02;580.57;;;208.03;;
6499;SDS011;3283;52.330;9.772;2023-04-24T06:33:28;576.50;;;201.20;;
6499;SDS011;3283;52.330;9.772;2023-04-24T06:35:53;580.53;;;199.97;;
6499;SDS011;3283;52.330;9.772;2023-04-24T06:38:19;565.97;;;171.87;;
6499;SDS011;3283;52.330;9.772;2023-04-24T06:40:44;576.93;;;204.60;;
6499;SDS011;3283;52.330;9.772;2023-04-24T06:43:10;574.57;;;200.93;;
6499;SDS011;3283;52.330;9.772;2023-04-24T06:45:35;579.87;;;213.97;;
6499;SDS011;3283;52.330;9.772;2023-04-24T06:48:01;576.77;;;213.13;;
6499;SDS011;3283;52.330;9.772;2023-04-24T06:50:26;574.37;;;193.67;;
6499;SDS011;3283;52.330;9.772;2023-04-24T06:52:52;577.47;;;199.10;;
6499;SDS011;3283;52.330;9.772;2023-04-24T06:55:17;579.40;;;217.00;;
6499;SDS011;3283;52.330;9.772;2023-04-24T06:57:43;585.90;;;204.67;;
6499;SDS011;3283;52.330;9.772;2023-04-24T07:00:09;579.90;;;216.17;;
6499;SDS011;3283;52.330;9.772;2023-04-24T07:02:35;578.17;;;220.17;;
6499;SDS011;3283;52.330;9.772;2023-04-24T07:05:00;574.27;;;191.30;;
6499;SDS011;3283;52.330;9.772;2023-04-24T07:07:26;583.77;;;219.00;;
6499;SDS011;3283;52.330;9.772;2023-04-24T07:09:52;575.10;;;203.57;;
6499;SDS011;3283;52.330;9.772;2023-04-24T07:12:19;571.13;;;188.07;;
6499;SDS011;3283;52.330;9.772;2023-04-24T07:14:46;574.10;;;201.37;;
6499;SDS011;3283;52.330;9.772;2023-04-24T07:17:12;576.40;;;203.67;;
6499;SDS011;3283;52.330;9.772;2023-04-24T07:19:38;580.40;;;195.67;;
6499;SDS011;3283;52.330;9.772;2023-04-24T07:22:03;589.10;;;221.17;;
6499;SDS011;3283;52.330;9.772;2023-04-24T07:24:29;587.57;;;215.70;;
6499;SDS011;3283;52.330;9.772;2023-04-24T07:26:57;573.83;;;185.97;;
6499;SDS011;3283;52.330;9.772;2023-04-24T07:29:22;582.33;;;222.03;;
6499;SDS011;3283;52.330;9.772;2023-04-24T15:22:30;541.23;;;136.80;;
6499;SDS011;3283;52.330;9.772;2023-04-24T15:24:55;554.27;;;151.57;;
6499;SDS011;3283;52.330;9.772;2023-04-24T15:27:21;561.00;;;148.37;;
6499;SDS011;3283;52.330;9.772;2023-04-24T15:29:46;562.57;;;161.40;;
6499;SDS011;3283;52.330;9.772;2023-04-24T15:32:11;547.13;;;155.97;;
6499;SDS011;3283;52.330;9.772;2023-04-24T15:34:37;568.67;;;173.60;;
6499;SDS011;3283;52.330;9.772;2023-04-24T15:37:02;563.57;;;154.20;;
6499;SDS011;3283;52.330;9.772;2023-04-24T15:39:27;570.00;;;168.30;;
6499;SDS011;3283;52.330;9.772;2023-04-24T15:41:53;568.67;;;165.93;;
6499;SDS011;3283;52.330;9.772;2023-04-24T15:44:18;568.63;;;159.17;;
6499;SDS011;3283;52.330;9.772;2023-04-24T15:46:44;566.83;;;173.83;;
6499;SDS011;3283;52.330;9.772;2023-04-24T15:49:10;560.60;;;161.93;;
6499;SDS011;3283;52.330;9.772;2023-04-24T15:51:35;569.93;;;163.40;;
6499;SDS011;3283;52.330;9.772;2023-04-24T15:54:01;557.93;;;155.70;;
6499;SDS011;3283;52.330;9.772;2023-04-24T15:56:27;564.57;;;166.33;;
6499;SDS011;3283;52.330;9.772;2023-04-24T15:58:52;564.00;;;162.80;;
6499;SDS011;3283;52.330;9.772;2023-04-24T16:01:18;565.63;;;167.97;;
6499;SDS011;3283;52.330;9.772;2023-04-24T16:03:43;565.20;;;173.90;;
6499;SDS011;3283;52.330;9.772;2023-04-24T16:06:08;555.57;;;154.97;;
6499;SDS011;3283;52.330;9.772;2023-04-24T16:08:34;570.60;;;172.43;;
6499;SDS011;3283;52.330;9.772;2023-04-24T16:11:00;567.47;;;171.37;;
6499;SDS011;3283;52.330;9.772;2023-04-24T16:13:25;559.27;;;153.80;;
6499;SDS011;3283;52.330;9.772;2023-04-24T16:15:53;561.07;;;168.93;;
6499;SDS011;3283;52.330;9.772;2023-04-24T16:18:18;563.80;;;172.00;;
6499;SDS011;3283;52.330;9.772;2023-04-24T16:20:44;567.67;;;173.40;;
6499;SDS011;3283;52.330;9.772;2023-04-24T16:23:09;566.37;;;170.13;;
6499;SDS011;3283;52.330;9.772;2023-04-24T16:25:35;564.03;;;163.30;;
6499;SDS011;3283;52.330;9.772;2023-04-24T16:28:00;567.27;;;167.47;;
6499;SDS011;3283;52.330;9.772;2023-04-24T16:30:25;551.37;;;145.00;;
6499;SDS011;3283;52.330;9.772;2023-04-24T16:32:51;563.47;;;172.70;;
6499;SDS011;3283;52.330;9.772;2023-04-24T16:35:16;565.47;;;172.43;;
6499;SDS011;3283;52.330;9.772;2023-04-24T16:37:42;564.57;;;167.83;;
6499;SDS011;3283;52.330;9.772;2023-04-24T16:40:07;555.03;;;154.87;;
6499;SDS011;3283;52.330;9.772;2023-04-24T16:42:35;564.73;;;171.30;;
6499;SDS011;3283;52.330;9.772;2023-04-24T16:45:01;561.43;;;160.50;;
6499;SDS011;3283;52.330;9.772;2023-04-24T16:47:27;558.63;;;152.67;;
6499;SDS011;3283;52.330;9.772;2023-04-24T16:49:53;559.43;;;152.63;;
6499;SDS011;3283;52.330;9.772;2023-04-24T16:52:19;565.03;;;164.97;;
6499;SDS011;3283;52.330;9.772;2023-04-24T16:54:44;567.67;;;169.40;;
6499;SDS011;3283;52.330;9.772;2023-04-24T16:57:09;573.70;;;173.23;;
6499;SDS011;3283;52.330;9.772;2023-04-24T16:59:35;566.47;;;168.93;;
6499;SDS011;3283;52.330;9.772;2023-04-24T17:02:00;559.07;;;150.57;;
6499;SDS011;3283;52.330;9.772;2023-04-24T17:04:26;558.73;;;153.87;;
6499;SDS011;3283;52.330;9.772;2023-04-24T17:06:51;563.70;;;161.17;;
6499;SDS011;3283;52.330;9.772;2023-04-24T17:09:17;571.17;;;173.90;;
6499;SDS011;3283;52.330;9.772;2023-04-24T17:11:43;556.47;;;152.50;;
6499;SDS011;3283;52.330;9.772;2023-04-24T17:14:08;568.97;;;164.17;;
6499;SDS011;3283;52.330;9.772;2023-04-24T17:16:34;558.20;;;156.87;;
6499;SDS011;3283;52.330;9.772;2023-04-24T17:19:01;562.93;;;155.87;;
6499;SDS011;3283;52.330;9.772;2023-04-24T17:21:26;564.83;;;161.00;;
6499;SDS011;3283;52.330;9.772;2023-04-24T17:50:27;565.97;;;158.77;;
6499;SDS011;3283;52.330;9.772;2023-04-24T17:52:53;613.50;;;192.90;;
6499;SDS011;3283;52.330;9.772;2023-04-24T17:55:18;576.63;;;175.97;;
6499;SDS011;3283;52.330;9.772;2023-04-24T17:57:43;577.40;;;176.37;;
6499;SDS011;3283;52.330;9.772;2023-04-24T18:00:09;562.83;;;154.63;;
6499;SDS011;3283;52.330;9.772;2023-04-24T18:02:35;568.50;;;168.60;;
6499;SDS011;3283;52.330;9.772;2023-04-24T18:22:48;549.27;;;143.97;;
6499;SDS011;3283;52.330;9.772;2023-04-24T18:25:13;553.30;;;141.40;;
6499;SDS011;3283;52.330;9.772;2023-04-24T18:27:39;553.27;;;142.80;;
6499;SDS011;3283;52.330;9.772;2023-04-24T18:33:35;556.67;;;140.97;;
6499;SDS011;3283;52.330;9.772;2023-04-24T18:36:01;553.90;;;145.47;;
6499;SDS011;3283;52.330;9.772;2023-04-24T18:38:27;552.07;;;146.53;;
6499;SDS011;3283;52.330;9.772;2023-04-24T18:40:53;603.13;;;277.73;;
